createdAt,value
2023-03-22T00:01:24.032Z,10.48
2023-03-22T00:03:52.520Z,15.45
2023-03-22T00:06:21.013Z,8.75
2023-03-22T00:08:53.338Z,12.13
2023-03-22T00:11:22.766Z,12.73
2023-03-22T00:13:52.694Z,9.88
2023-03-22T00:16:21.703Z,11.40
2023-03-22T00:18:49.161Z,10.02
2023-03-22T00:21:17.692Z,11.40
2023-03-22T00:23:45.510Z,11.93
2023-03-22T00:26:14.954Z,9.20
2023-03-22T00:28:43.700Z,10.18
2023-03-22T00:31:11.264Z,10.98
2023-03-22T00:33:38.706Z,9.88
2023-03-22T00:36:09.334Z,10.63
2023-03-22T00:38:44.858Z,9.75
2023-03-22T00:41:14.293Z,10.93
2023-03-22T00:43:41.963Z,12.32
2023-03-22T00:46:10.831Z,9.95
2023-03-22T00:48:38.570Z,8.95
2023-03-22T00:51:07.426Z,9.85
2023-03-22T00:53:37.402Z,9.63
2023-03-22T00:56:06.150Z,9.98
2023-03-22T00:58:43.378Z,11.23
2023-03-22T01:01:14.608Z,9.27
2023-03-22T01:03:43.652Z,9.65
2023-03-22T01:06:14.628Z,9.65
2023-03-22T01:08:41.980Z,9.57
2023-03-22T01:11:09.664Z,11.07
2023-03-22T01:13:37.787Z,9.43
2023-03-22T01:16:06.794Z,8.88
2023-03-22T01:18:35.857Z,9.07
2023-03-22T01:21:03.981Z,8.93
2023-03-22T01:23:31.950Z,11.23
2023-03-22T01:25:59.634Z,8.57
2023-03-22T01:28:27.554Z,9.45
2023-03-22T01:30:55.460Z,10.40
2023-03-22T01:33:22.954Z,11.32
2023-03-22T01:35:51.660Z,10.23
2023-03-22T01:38:20.461Z,10.38
2023-03-22T01:40:55.308Z,9.48
2023-03-22T01:43:22.952Z,8.75
2023-03-22T01:45:52.314Z,8.98
2023-03-22T01:48:27.228Z,9.60
2023-03-22T01:51:12.259Z,9.88
2023-03-22T01:54:12.316Z,10.90
2023-03-22T01:56:41.746Z,8.18
2023-03-22T01:59:15.467Z,9.18
2023-03-22T02:02:10.933Z,9.32
2023-03-22T02:04:39.363Z,10.38
2023-03-22T02:07:15.643Z,8.60
2023-03-22T02:09:46.621Z,7.93
2023-03-22T02:12:17.665Z,7.95
2023-03-22T02:15:23.342Z,8.20
2023-03-22T02:18:17.075Z,9.63
2023-03-22T02:20:53.064Z,7.25
2023-03-22T02:23:58.771Z,8.07
2023-03-22T02:26:47.590Z,10.60
2023-03-22T02:29:19.252Z,8.73
2023-03-22T02:31:55.548Z,9.40
2023-03-22T02:34:47.503Z,9.15
2023-03-22T02:37:27.139Z,9.95
2023-03-22T02:40:03.975Z,8.10
2023-03-22T02:42:34.032Z,8.40
2023-03-22T02:45:24.680Z,8.50
2023-03-22T02:48:16.590Z,7.43
2023-03-22T02:50:53.569Z,7.65
2023-03-22T02:53:40.786Z,8.05
2023-03-22T02:56:13.218Z,8.35
2023-03-22T02:58:57.874Z,7.88
2023-03-22T03:01:33.376Z,9.10
2023-03-22T03:04:04.947Z,9.98
2023-03-22T03:06:38.938Z,9.93
2023-03-22T03:09:08.239Z,8.50
2023-03-22T03:11:36.653Z,8.13
2023-03-22T03:14:05.074Z,8.20
2023-03-22T03:16:36.696Z,8.05
2023-03-22T03:19:43.476Z,7.78
2023-03-22T03:22:35.218Z,8.48
2023-03-22T03:25:14.830Z,7.78
2023-03-22T03:27:50.953Z,11.15
2023-03-22T03:30:31.539Z,8.00
2023-03-22T03:33:04.392Z,8.57
2023-03-22T03:35:38.378Z,6.82
2023-03-22T03:38:13.552Z,9.18
2023-03-22T03:40:45.630Z,7.15
2023-03-22T03:43:14.268Z,8.25
2023-03-22T03:45:42.271Z,9.02
2023-03-22T03:48:18.384Z,7.93
2023-03-22T03:50:47.749Z,8.10
2023-03-22T03:53:15.080Z,9.00
2023-03-22T03:55:42.375Z,8.00
2023-03-22T03:58:10.333Z,7.63
2023-03-22T04:00:38.575Z,9.48
2023-03-22T04:03:28.813Z,7.55
2023-03-22T04:06:14.694Z,6.97
2023-03-22T04:08:46.810Z,6.57
2023-03-22T04:11:16.767Z,7.60
2023-03-22T04:13:47.364Z,7.80
2023-03-22T04:16:19.955Z,7.18
2023-03-22T04:18:47.601Z,8.25
2023-03-22T04:21:16.475Z,7.70
2023-03-22T04:24:02.620Z,7.97
2023-03-22T04:26:35.302Z,9.68
2023-03-22T04:29:25.762Z,7.00
2023-03-22T04:31:59.684Z,7.10
2023-03-22T04:34:46.387Z,7.47
2023-03-22T04:37:16.308Z,8.93
2023-03-22T04:39:57.967Z,8.00
2023-03-22T04:43:04.344Z,6.95
2023-03-22T04:45:55.111Z,7.88
2023-03-22T04:48:28.108Z,6.13
2023-03-22T04:50:57.049Z,8.20
2023-03-22T04:53:27.583Z,7.13
2023-03-22T04:55:59.297Z,6.32
2023-03-22T04:58:28.527Z,7.10
2023-03-22T05:00:55.774Z,7.38
2023-03-22T05:03:23.805Z,7.97
2023-03-22T05:06:01.503Z,6.47
2023-03-22T05:08:38.467Z,7.30
2023-03-22T05:11:13.304Z,7.05
2023-03-22T05:13:42.294Z,7.53
2023-03-22T05:16:10.449Z,8.23
2023-03-22T05:18:46.393Z,6.60
2023-03-22T05:21:16.064Z,7.32
2023-03-22T05:23:45.724Z,8.15
2023-03-22T05:26:20.481Z,6.10
2023-03-22T05:28:47.869Z,6.82
2023-03-22T05:31:22.670Z,7.05
2023-03-22T05:33:56.514Z,7.35
2023-03-22T05:36:29.664Z,6.43
2023-03-22T05:39:17.384Z,7.63
2023-03-22T05:41:46.312Z,8.05
2023-03-22T05:44:14.280Z,7.20
2023-03-22T05:46:50.894Z,9.30
2023-03-22T05:49:31.785Z,8.85
2023-03-22T05:51:59.061Z,7.35
2023-03-22T05:54:37.728Z,9.45
2023-03-22T05:57:06.561Z,7.53
2023-03-22T05:59:33.916Z,6.55
2023-03-22T06:02:01.560Z,9.30
2023-03-22T06:04:31.584Z,8.48
2023-03-22T06:07:02.930Z,8.45
2023-03-22T06:09:50.351Z,6.50
2023-03-22T06:12:24.697Z,6.68
2023-03-22T06:15:09.763Z,5.72
2023-03-22T06:18:01.665Z,6.20
2023-03-22T06:20:33.014Z,9.30
2023-03-22T06:23:04.322Z,6.20
2023-03-22T06:25:32.524Z,6.30
2023-03-22T06:28:00.840Z,6.45
2023-03-22T06:30:29.627Z,7.18
2023-03-22T06:33:36.512Z,9.40
2023-03-22T06:36:21.149Z,7.13
2023-03-22T06:39:23.865Z,6.68
2023-03-22T06:41:52.356Z,5.45
2023-03-22T06:44:19.897Z,7.28
2023-03-22T06:49:46.179Z,8.10
2023-03-22T06:52:26.415Z,6.25
2023-03-22T06:54:53.723Z,8.40
2023-03-22T06:57:21.235Z,6.60
2023-03-22T06:59:48.553Z,7.22
2023-03-22T07:02:15.963Z,5.97
2023-03-22T07:05:01.843Z,7.53
2023-03-22T07:07:29.196Z,7.10
2023-03-22T07:09:57.024Z,8.05
2023-03-22T07:12:24.681Z,7.00
2023-03-22T07:14:52.356Z,8.52
2023-03-22T07:17:43.588Z,9.13
2023-03-22T07:20:11.256Z,5.88
2023-03-22T07:22:38.740Z,7.15
2023-03-22T07:25:06.380Z,5.95
2023-03-22T07:27:34.402Z,7.70
2023-03-22T07:30:01.940Z,6.93
2023-03-22T07:32:32.743Z,7.30
2023-03-22T07:35:11.858Z,9.55
2023-03-22T07:37:40.608Z,8.90
2023-03-22T07:40:17.263Z,6.82
2023-03-22T07:42:44.578Z,6.72
2023-03-22T07:45:35.874Z,8.45
2023-03-22T07:48:23.862Z,9.02
2023-03-22T07:51:17.695Z,8.00
2023-03-22T07:53:45.044Z,8.88
2023-03-22T07:56:12.530Z,11.82
2023-03-22T07:58:40.020Z,13.80
2023-03-22T08:01:09.997Z,9.30
2023-03-22T08:03:54.191Z,8.82
2023-03-22T08:06:40.379Z,11.27
2023-03-22T08:09:08.458Z,7.47
2023-03-22T08:11:36.662Z,7.95
2023-03-22T08:14:03.896Z,7.45
2023-03-22T08:16:34.205Z,7.57
2023-03-22T08:19:03.589Z,7.35
2023-03-22T08:21:34.766Z,6.07
2023-03-22T08:24:05.844Z,7.40
2023-03-22T08:29:31.275Z,10.43
2023-03-22T08:32:02.266Z,7.60
2023-03-22T08:34:31.492Z,6.93
2023-03-22T08:36:59.038Z,9.65
2023-03-22T08:39:27.110Z,7.50
2023-03-22T08:42:12.250Z,7.05
2023-03-22T08:44:39.545Z,10.50
2023-03-22T08:47:07.007Z,7.07
2023-03-22T08:49:34.907Z,6.30
2023-03-22T08:52:10.598Z,5.72
2023-03-22T08:55:05.351Z,10.93
2023-03-22T08:58:02.037Z,5.68
2023-03-22T09:00:48.176Z,5.57
2023-03-22T09:03:43.702Z,7.72
2023-03-22T09:06:11.253Z,5.80
2023-03-22T09:08:42.105Z,6.47
2023-03-22T09:11:14.347Z,5.97
2023-03-22T09:13:43.677Z,6.88
2023-03-22T09:16:11.338Z,7.80
2023-03-22T09:18:40.183Z,7.47
2023-03-22T09:21:14.608Z,9.60
2023-03-22T09:24:05.102Z,10.30
2023-03-22T09:26:46.064Z,12.30
2023-03-22T09:29:16.072Z,9.45
2023-03-22T09:31:44.604Z,7.63
2023-03-22T09:34:18.370Z,9.73
2023-03-22T09:36:47.504Z,8.57
2023-03-22T09:39:17.205Z,6.40
2023-03-22T09:41:51.813Z,6.88
2023-03-22T09:44:56.007Z,9.07
2023-03-22T09:47:44.158Z,7.05
2023-03-22T09:50:28.528Z,8.55
2023-03-22T09:52:55.839Z,8.43
2023-03-22T09:56:15.436Z,7.85
2023-03-22T09:59:15.942Z,11.10
2023-03-22T10:01:57.113Z,9.48
2023-03-22T10:04:34.678Z,10.18
2023-03-22T10:07:29.881Z,14.13
2023-03-22T10:10:18.202Z,9.77
2023-03-22T10:13:23.249Z,11.02
2023-03-22T10:15:56.173Z,10.25
2023-03-22T10:18:30.153Z,10.00
2023-03-22T10:21:02.880Z,11.88
2023-03-22T10:24:05.254Z,14.32
2023-03-22T10:26:37.157Z,11.48
2023-03-22T10:29:16.738Z,11.05
2023-03-22T10:31:45.175Z,8.07
2023-03-22T10:34:33.710Z,9.90
2023-03-22T10:37:04.293Z,9.32
2023-03-22T10:39:38.345Z,12.35
2023-03-22T10:42:12.953Z,8.05
2023-03-22T10:44:48.123Z,9.98
2023-03-22T10:47:21.872Z,9.52
2023-03-22T10:49:56.180Z,7.47
2023-03-22T10:52:57.353Z,9.25
2023-03-22T10:55:25.488Z,12.02
2023-03-22T10:58:12.199Z,10.43
2023-03-22T11:00:45.587Z,9.57
2023-03-22T11:03:36.951Z,8.02
2023-03-22T11:06:22.958Z,9.57
2023-03-22T11:08:54.872Z,7.03
2023-03-22T11:11:26.073Z,9.88
2023-03-22T11:14:23.738Z,9.50
2023-03-22T11:17:00.638Z,8.55
2023-03-22T11:19:37.111Z,7.65
2023-03-22T11:22:26.650Z,8.55
2023-03-22T11:24:56.783Z,10.00
2023-03-22T11:27:29.379Z,9.43
2023-03-22T11:30:17.181Z,8.43
2023-03-22T11:32:44.576Z,9.43
2023-03-22T11:35:20.639Z,9.13
2023-03-22T11:37:56.048Z,8.15
2023-03-22T11:40:33.375Z,7.45
2023-03-22T11:43:24.927Z,6.60
2023-03-22T11:45:57.382Z,7.97
2023-03-22T11:48:27.800Z,8.55
2023-03-22T11:51:04.348Z,8.63
2023-03-22T11:53:34.520Z,6.13
2023-03-22T11:56:07.444Z,7.90
2023-03-22T11:58:37.523Z,6.78
2023-03-22T12:01:06.150Z,6.55
2023-03-22T12:03:39.509Z,7.15
2023-03-22T12:06:19.256Z,7.55
2023-03-22T12:08:55.132Z,7.90
2023-03-22T12:11:37.780Z,7.00
2023-03-22T12:14:21.298Z,8.13
2023-03-22T12:17:14.842Z,6.30
2023-03-22T12:20:09.724Z,7.13
2023-03-22T12:22:45.622Z,6.15
2023-03-22T12:25:17.540Z,6.30
2023-03-22T12:27:52.635Z,6.20
2023-03-22T12:30:23.779Z,5.72
2023-03-22T12:33:02.617Z,6.57
2023-03-22T12:35:33.520Z,5.90
2023-03-22T12:38:21.798Z,5.55
2023-03-22T12:40:50.991Z,5.95
2023-03-22T12:43:44.733Z,6.43
2023-03-22T12:46:19.812Z,5.53
2023-03-22T12:48:56.233Z,7.55
2023-03-22T12:51:23.782Z,6.78
2023-03-22T12:53:55.188Z,7.43
2023-03-22T12:56:34.641Z,6.72
2023-03-22T12:59:05.866Z,8.02
2023-03-22T13:01:45.691Z,5.15
2023-03-22T13:04:31.898Z,6.75
2023-03-22T13:07:14.421Z,5.88
2023-03-22T13:09:41.907Z,7.27
2023-03-22T13:12:15.403Z,6.18
2023-03-22T13:14:48.781Z,7.70
2023-03-22T13:17:41.246Z,6.82
2023-03-22T13:20:15.682Z,6.75
2023-03-22T13:22:45.841Z,6.03
2023-03-22T13:25:13.517Z,5.88
2023-03-22T13:27:54.530Z,6.10
2023-03-22T13:30:24.218Z,5.43
2023-03-22T13:33:03.490Z,5.25
2023-03-22T13:35:40.021Z,5.40
2023-03-22T13:38:29.579Z,4.78
2023-03-22T13:41:05.306Z,6.63
2023-03-22T13:43:35.333Z,5.90
2023-03-22T13:46:17.601Z,6.28
2023-03-22T13:48:48.499Z,5.10
2023-03-22T13:51:22.857Z,5.50
2023-03-22T13:54:18.828Z,5.22
2023-03-22T13:56:59.619Z,5.43
2023-03-22T13:59:33.945Z,5.13
2023-03-22T14:02:07.622Z,5.45
2023-03-22T14:04:47.568Z,5.57
2023-03-22T14:07:21.104Z,4.78
2023-03-22T14:10:11.404Z,6.07
2023-03-22T14:12:55.966Z,5.38
2023-03-22T14:15:26.563Z,6.50
2023-03-22T14:18:04.092Z,4.80
2023-03-22T14:20:35.641Z,5.88
